Time;durP1;ratioP1;P1;durP2;ratioP2;P2;SDS_P1;SDS_P2;PMS_P1;PMS_P2;Temp;Humidity;BMP_temperature;BMP_pressure;BME280_temperature;BME280_humidity;BME280_pressure;Samples;Min_cycle;Max_cycle;Signal;HPM_P1;HPM_P2
2023/10/04 00:01:54;;;;;;;15.27;2.65;;;;;;;;;;4888644;29;20033;-78
2023/10/04 00:04:20;;;;;;;13.70;2.65;;;;;;;;;;4849295;29;22072;-77
2023/10/04 00:06:46;;;;;;;11.95;2.05;;;;;;;;;;4883490;29;20171;-77
2023/10/04 00:09:12;;;;;;;16.17;2.40;;;;;;;;;;4895366;29;20080;-76
2023/10/04 00:11:38;;;;;;;13.35;2.35;;;;;;;;;;4882960;29;20100;-78
2023/10/04 00:14:04;;;;;;;15.15;2.53;;;;;;;;;;4876726;29;20043;-76
2023/10/04 00:16:34;;;;;;;13.48;1.67;;;;;;;;;;4886883;29;20051;-78
2023/10/04 00:19:00;;;;;;;13.25;2.15;;;;;;;;;;4893351;29;20125;-77
2023/10/04 00:21:26;;;;;;;17.40;2.13;;;;;;;;;;4889689;29;20036;-78
2023/10/04 00:23:52;;;;;;;20.42;2.45;;;;;;;;;;4878112;29;20053;-78
2023/10/04 00:26:18;;;;;;;9.57;2.20;;;;;;;;;;4869446;29;20079;-78
2023/10/04 00:28:44;;;;;;;12.90;2.70;;;;;;;;;;4888128;29;20033;-78
2023/10/04 00:31:13;;;;;;;18.38;2.28;;;;;;;;;;4882696;29;20408;-77
2023/10/04 00:33:39;;;;;;;19.27;2.63;;;;;;;;;;4890388;29;20043;-77
2023/10/04 00:36:05;;;;;;;17.35;2.60;;;;;;;;;;4884727;29;20076;-78
2023/10/04 00:38:31;;;;;;;18.15;2.67;;;;;;;;;;4879458;29;20073;-78
2023/10/04 00:40:57;;;;;;;10.63;2.33;;;;;;;;;;4879200;29;20360;-78
2023/10/04 00:43:23;;;;;;;15.18;2.10;;;;;;;;;;4872049;29;20052;-78
2023/10/04 00:45:50;;;;;;;12.77;1.55;;;;;;;;;;4883778;29;20029;-78
2023/10/04 00:48:31;;;;;;;13.57;2.20;;;;;;;;;;4892812;29;20468;-78
2023/10/04 00:50:59;;;;;;;14.32;2.38;;;;;;;;;;4875873;29;22726;-76
2023/10/04 00:53:26;;;;;;;13.93;2.13;;;;;;;;;;4878841;29;20029;-78
2023/10/04 00:55:54;;;;;;;13.38;2.60;;;;;;;;;;4891841;29;20033;-78
2023/10/04 00:58:21;;;;;;;16.85;2.53;;;;;;;;;;4887785;29;20451;-76
2023/10/04 01:00:48;;;;;;;12.40;3.53;;;;;;;;;;4896975;29;20503;-77
2023/10/04 01:03:22;;;;;;;14.60;2.50;;;;;;;;;;4886862;29;20044;-77
2023/10/04 01:05:51;;;;;;;13.80;1.92;;;;;;;;;;4889552;29;20091;-77
2023/10/04 01:08:20;;;;;;;17.63;2.10;;;;;;;;;;4884067;29;20149;-77
2023/10/04 01:10:47;;;;;;;21.25;3.17;;;;;;;;;;4895142;29;20032;-79
2023/10/04 01:13:16;;;;;;;16.98;2.53;;;;;;;;;;4867710;29;20068;-77
2023/10/04 01:15:42;;;;;;;16.38;2.38;;;;;;;;;;4888677;29;20029;-77
2023/10/04 01:18:11;;;;;;;17.50;2.40;;;;;;;;;;4891331;29;20115;-78
2023/10/04 01:20:38;;;;;;;19.35;3.00;;;;;;;;;;4883424;29;20028;-77
2023/10/04 01:23:06;;;;;;;12.93;3.03;;;;;;;;;;4883375;29;20060;-77
2023/10/04 01:25:36;;;;;;;17.58;2.65;;;;;;;;;;4879407;29;20060;-78
2023/10/04 01:28:28;;;;;;;16.98;3.58;;;;;;;;;;4868044;29;20555;-78
2023/10/04 01:30:55;;;;;;;15.57;2.25;;;;;;;;;;4890989;29;20028;-79
2023/10/04 01:33:22;;;;;;;15.20;2.65;;;;;;;;;;4870394;29;20037;-78
2023/10/04 01:35:55;;;;;;;13.40;2.33;;;;;;;;;;4878911;29;20074;-78
2023/10/04 01:38:25;;;;;;;18.08;3.42;;;;;;;;;;4885503;29;20025;-77
2023/10/04 01:40:52;;;;;;;13.95;2.45;;;;;;;;;;4895538;29;20029;-78
2023/10/04 01:43:19;;;;;;;19.65;2.78;;;;;;;;;;4884114;29;20057;-76
2023/10/04 01:45:50;;;;;;;14.82;2.70;;;;;;;;;;4883253;29;20498;-78
2023/10/04 01:48:17;;;;;;;18.10;2.25;;;;;;;;;;4879478;29;20187;-77
2023/10/04 01:50:43;;;;;;;16.27;2.38;;;;;;;;;;4878395;29;20037;-76
2023/10/04 01:53:10;;;;;;;13.02;2.10;;;;;;;;;;4882088;29;20041;-77
2023/10/04 01:55:40;;;;;;;14.48;1.88;;;;;;;;;;4883624;29;20033;-77
2023/10/04 01:58:07;;;;;;;19.85;3.25;;;;;;;;;;4882284;29;20025;-77
2023/10/04 02:00:34;;;;;;;17.23;3.63;;;;;;;;;;4880984;29;20029;-77
2023/10/04 02:03:01;;;;;;;15.15;2.30;;;;;;;;;;4885694;29;20044;-77
2023/10/04 02:06:01;;;;;;;18.10;3.08;;;;;;;;;;4870467;29;20121;-77
2023/10/04 02:08:20;;;;;;;10.75;1.88;;;;;;;;;;4878613;29;20036;-77
2023/10/04 02:10:46;;;;;;;21.73;3.35;;;;;;;;;;4871747;29;20081;-76
2023/10/04 02:13:14;;;;;;;18.88;2.38;;;;;;;;;;4888446;29;20051;-76
2023/10/04 02:15:42;;;;;;;14.85;3.85;;;;;;;;;;4889647;29;20028;-75
2023/10/04 02:18:08;;;;;;;11.90;2.38;;;;;;;;;;4872656;29;20147;-77
2023/10/04 02:20:35;;;;;;;15.73;2.08;;;;;;;;;;4881928;29;20108;-76
2023/10/04 02:23:03;;;;;;;13.35;2.20;;;;;;;;;;4861803;29;20491;-77
2023/10/04 02:25:30;;;;;;;16.60;3.75;;;;;;;;;;4887605;29;20119;-76
2023/10/04 02:28:03;;;;;;;18.88;3.60;;;;;;;;;;4879105;29;20049;-77
2023/10/04 02:30:29;;;;;;;20.25;3.65;;;;;;;;;;4883589;29;20124;-77
2023/10/04 02:32:57;;;;;;;11.50;2.92;;;;;;;;;;4877491;29;20033;-77
2023/10/04 02:35:44;;;;;;;13.85;2.33;;;;;;;;;;4882746;29;20041;-77
2023/10/04 02:38:34;;;;;;;14.07;3.25;;;;;;;;;;4890687;29;20041;-77
2023/10/04 02:40:56;;;;;;;12.65;2.88;;;;;;;;;;4872365;29;20045;-77
2023/10/04 02:43:25;;;;;;;11.45;1.90;;;;;;;;;;4898587;29;20028;-78
2023/10/04 02:45:52;;;;;;;12.48;2.08;;;;;;;;;;4896917;29;20033;-77
2023/10/04 02:48:19;;;;;;;18.95;2.80;;;;;;;;;;4882339;29;20033;-77
2023/10/04 02:50:47;;;;;;;14.30;2.55;;;;;;;;;;4889410;29;20061;-77
2023/10/04 02:53:17;;;;;;;14.35;2.63;;;;;;;;;;4886336;29;20037;-77
2023/10/04 02:55:43;;;;;;;10.57;2.67;;;;;;;;;;4863955;29;20440;-77
2023/10/04 02:58:12;;;;;;;18.77;2.85;;;;;;;;;;4877411;29;20092;-77
2023/10/04 03:00:46;;;;;;;15.15;3.13;;;;;;;;;;4888453;29;20116;-78
2023/10/04 03:03:21;;;;;;;13.75;3.33;;;;;;;;;;4887738;29;20088;-78
2023/10/04 03:05:48;;;;;;;13.60;2.75;;;;;;;;;;4888164;29;20024;-79
2023/10/04 03:08:17;;;;;;;14.15;2.53;;;;;;;;;;4891901;29;20065;-78
2023/10/04 03:10:45;;;;;;;17.30;2.38;;;;;;;;;;4898016;29;20040;-79
2023/10/04 03:13:27;;;;;;;20.83;3.20;;;;;;;;;;4894201;29;20037;-79
2023/10/04 03:15:54;;;;;;;12.55;2.03;;;;;;;;;;4889062;29;20051;-77
2023/10/04 03:18:20;;;;;;;13.60;2.30;;;;;;;;;;4884529;29;20064;-78
2023/10/04 03:21:10;;;;;;;13.05;2.65;;;;;;;;;;4882674;29;20115;-78
2023/10/04 03:23:40;;;;;;;14.55;2.78;;;;;;;;;;4872215;29;20388;-78
2023/10/04 03:26:06;;;;;;;14.45;2.17;;;;;;;;;;4893402;29;20037;-80
2023/10/04 03:28:37;;;;;;;14.40;2.50;;;;;;;;;;4879930;29;20089;-79
2023/10/04 03:31:08;;;;;;;13.63;2.35;;;;;;;;;;4880260;29;20048;-79
2023/10/04 03:33:38;;;;;;;17.48;2.45;;;;;;;;;;4896492;29;20378;-79
2023/10/04 03:36:07;;;;;;;13.52;2.33;;;;;;;;;;4886056;29;20032;-80
2023/10/04 03:38:34;;;;;;;8.63;3.13;;;;;;;;;;4879985;29;20564;-78
2023/10/04 03:41:04;;;;;;;16.15;2.70;;;;;;;;;;4878780;29;20514;-78
2023/10/04 03:43:31;;;;;;;8.90;2.65;;;;;;;;;;4872218;29;20068;-78
2023/10/04 03:45:57;;;;;;;13.45;2.10;;;;;;;;;;4891794;29;20092;-78
2023/10/04 03:48:24;;;;;;;13.73;2.35;;;;;;;;;;4886430;29;20032;-78
2023/10/04 03:50:51;;;;;;;12.45;2.22;;;;;;;;;;4881743;29;20036;-79
2023/10/04 03:53:20;;;;;;;14.73;3.13;;;;;;;;;;4888616;29;20111;-78
2023/10/04 03:55:47;;;;;;;14.13;3.30;;;;;;;;;;4880144;29;20040;-78
2023/10/04 03:58:16;;;;;;;13.88;2.63;;;;;;;;;;4887958;29;20023;-78
2023/10/04 04:00:42;;;;;;;11.77;2.42;;;;;;;;;;4889732;29;20033;-78
2023/10/04 04:03:09;;;;;;;11.32;1.88;;;;;;;;;;4888322;29;20032;-77
2023/10/04 04:05:41;;;;;;;14.52;1.77;;;;;;;;;;4882713;29;20495;-78
2023/10/04 04:08:08;;;;;;;14.30;2.47;;;;;;;;;;4874272;29;20044;-77
2023/10/04 04:10:35;;;;;;;24.85;2.78;;;;;;;;;;4880892;29;20391;-77
2023/10/04 04:13:02;;;;;;;17.75;3.25;;;;;;;;;;4888528;29;20092;-77
2023/10/04 04:15:33;;;;;;;12.68;2.53;;;;;;;;;;4871169;29;20472;-78
2023/10/04 04:17:59;;;;;;;14.70;3.15;;;;;;;;;;4886002;29;20036;-78
2023/10/04 04:20:26;;;;;;;11.60;2.95;;;;;;;;;;4881660;29;20044;-78
2023/10/04 04:22:56;;;;;;;19.48;2.60;;;;;;;;;;4880555;29;20267;-78
2023/10/04 04:25:23;;;;;;;16.15;2.70;;;;;;;;;;4872081;29;20120;-77
2023/10/04 04:27:50;;;;;;;11.95;2.40;;;;;;;;;;4883372;29;20032;-78
2023/10/04 04:30:19;;;;;;;15.02;2.78;;;;;;;;;;4885169;29;20131;-77
2023/10/04 04:32:47;;;;;;;55.13;29.65;;;;;;;;;;4886685;29;20080;-76
2023/10/04 04:35:17;;;;;;;16.95;4.13;;;;;;;;;;4882736;29;20029;-75
2023/10/04 04:37:44;;;;;;;18.40;2.92;;;;;;;;;;4891114;29;20504;-75
2023/10/04 04:40:17;;;;;;;15.90;3.35;;;;;;;;;;4890712;29;20056;-77
2023/10/04 04:42:47;;;;;;;15.02;2.58;;;;;;;;;;4879889;29;20056;-77
2023/10/04 04:45:16;;;;;;;18.08;2.30;;;;;;;;;;4882453;29;20044;-78
2023/10/04 04:47:44;;;;;;;17.30;2.42;;;;;;;;;;4895391;29;20037;-78
2023/10/04 04:50:11;;;;;;;12.48;2.83;;;;;;;;;;4887038;29;20044;-77
2023/10/04 04:52:37;;;;;;;15.48;3.45;;;;;;;;;;4887123;29;20029;-77
2023/10/04 04:55:04;;;;;;;21.25;3.17;;;;;;;;;;4878741;29;20060;-77
2023/10/04 04:57:34;;;;;;;13.48;2.25;;;;;;;;;;4884005;29;20157;-78
2023/10/04 05:00:07;;;;;;;11.77;2.80;;;;;;;;;;4886974;29;20032;-78
2023/10/04 05:02:33;;;;;;;18.00;3.53;;;;;;;;;;4878899;29;20128;-77
2023/10/04 05:05:00;;;;;;;12.07;1.88;;;;;;;;;;4878903;29;20071;-77
2023/10/04 05:07:27;;;;;;;13.13;3.25;;;;;;;;;;4879854;29;20085;-78
2023/10/04 05:09:55;;;;;;;18.95;2.80;;;;;;;;;;4887793;29;20056;-78
2023/10/04 05:12:21;;;;;;;14.85;3.17;;;;;;;;;;4879806;29;20041;-79
2023/10/04 05:14:47;;;;;;;21.35;3.60;;;;;;;;;;4884528;29;20033;-78
2023/10/04 05:17:13;;;;;;;15.60;3.22;;;;;;;;;;4888814;29;20112;-77
2023/10/04 05:19:39;;;;;;;14.73;2.80;;;;;;;;;;4896840;29;20056;-78
2023/10/04 05:22:05;;;;;;;15.07;3.15;;;;;;;;;;4885680;29;20036;-77
2023/10/04 05:24:31;;;;;;;14.27;2.80;;;;;;;;;;4897580;29;20049;-77
2023/10/04 05:26:57;;;;;;;17.05;3.42;;;;;;;;;;4887687;29;20059;-77
2023/10/04 05:29:23;;;;;;;11.05;2.60;;;;;;;;;;4880730;29;20368;-76
2023/10/04 05:31:49;;;;;;;13.52;3.10;;;;;;;;;;4871277;29;20043;-76
2023/10/04 05:34:15;;;;;;;16.23;4.18;;;;;;;;;;4877574;29;20047;-76
2023/10/04 05:36:42;;;;;;;13.23;3.10;;;;;;;;;;4885331;29;20093;-76
2023/10/04 05:39:11;;;;;;;13.05;2.55;;;;;;;;;;4887485;29;20078;-76
2023/10/04 05:41:37;;;;;;;17.88;2.92;;;;;;;;;;4892316;29;20096;-76
2023/10/04 05:44:03;;;;;;;13.15;2.65;;;;;;;;;;4882842;29;20037;-76
2023/10/04 05:46:29;;;;;;;11.73;2.53;;;;;;;;;;4885689;29;20116;-74
2023/10/04 05:48:55;;;;;;;18.48;5.10;;;;;;;;;;4892688;29;20037;-73
2023/10/04 05:51:24;;;;;;;16.73;3.28;;;;;;;;;;4889456;29;20095;-73
2023/10/04 05:53:52;;;;;;;16.77;5.35;;;;;;;;;;4880476;29;20023;-73
2023/10/04 05:56:20;;;;;;;18.55;3.20;;;;;;;;;;4879438;29;20048;-76
2023/10/04 05:58:46;;;;;;;18.77;3.65;;;;;;;;;;4895526;29;20083;-77
2023/10/04 06:01:20;;;;;;;25.23;5.85;;;;;;;;;;4894376;29;20439;-77
2023/10/04 06:03:46;;;;;;;16.77;3.53;;;;;;;;;;4896499;29;20040;-77
2023/10/04 06:06:12;;;;;;;13.40;3.30;;;;;;;;;;4889992;29;20112;-76
2023/10/04 06:11:42;;;;;;;22.58;3.90;;;;;;;;;;4894906;29;20051;-76
2023/10/04 06:14:08;;;;;;;14.00;3.20;;;;;;;;;;4896295;29;20039;-76
2023/10/04 06:16:34;;;;;;;16.83;3.97;;;;;;;;;;4865679;29;20037;-76
2023/10/04 06:19:01;;;;;;;17.35;4.28;;;;;;;;;;4887101;29;20041;-76
2023/10/04 06:21:27;;;;;;;14.10;3.75;;;;;;;;;;4889331;29;20029;-76
2023/10/04 06:23:53;;;;;;;16.08;3.88;;;;;;;;;;4875966;29;20072;-76
2023/10/04 06:26:19;;;;;;;15.30;4.80;;;;;;;;;;4867456;29;20042;-75
2023/10/04 06:28:46;;;;;;;23.35;4.95;;;;;;;;;;4878094;29;20093;-77
2023/10/04 06:31:12;;;;;;;17.25;3.80;;;;;;;;;;4876902;29;20036;-76
2023/10/04 06:33:40;;;;;;;21.10;5.07;;;;;;;;;;4869837;29;20034;-76
2023/10/04 06:36:06;;;;;;;18.48;4.63;;;;;;;;;;4865154;29;20032;-75
2023/10/04 06:38:32;;;;;;;18.80;4.53;;;;;;;;;;4860736;29;20404;-74
2023/10/04 06:40:58;;;;;;;12.68;3.10;;;;;;;;;;4870249;29;20033;-74
2023/10/04 06:43:24;;;;;;;20.88;4.03;;;;;;;;;;4871948;29;20041;-74
2023/10/04 06:45:50;;;;;;;23.67;5.22;;;;;;;;;;4873120;29;20045;-74
2023/10/04 06:48:16;;;;;;;17.77;5.20;;;;;;;;;;4865717;29;20037;-75
2023/10/04 06:50:44;;;;;;;11.98;4.10;;;;;;;;;;4872357;29;20041;-75
2023/10/04 06:53:10;;;;;;;18.80;4.28;;;;;;;;;;4863803;29;21421;-75
2023/10/04 06:55:37;;;;;;;27.95;13.25;;;;;;;;;;4864544;29;20025;-76
2023/10/04 06:58:04;;;;;;;20.60;7.95;;;;;;;;;;4873200;29;20029;-75
2023/10/04 07:00:31;;;;;;;14.27;4.20;;;;;;;;;;4872086;29;20037;-77
2023/10/04 07:03:01;;;;;;;17.50;5.97;;;;;;;;;;4865295;29;20480;-76
2023/10/04 07:05:29;;;;;;;16.08;3.88;;;;;;;;;;4865261;29;20073;-77
2023/10/04 07:07:58;;;;;;;18.75;4.35;;;;;;;;;;4876853;29;20116;-77
2023/10/04 07:10:28;;;;;;;18.15;4.45;;;;;;;;;;4876016;29;20036;-78
2023/10/04 07:12:55;;;;;;;18.77;4.47;;;;;;;;;;4876066;29;20068;-76
2023/10/04 07:15:21;;;;;;;18.92;4.50;;;;;;;;;;4874635;29;20503;-77
2023/10/04 07:17:49;;;;;;;18.95;4.70;;;;;;;;;;4859243;29;20026;-76
2023/10/04 07:20:16;;;;;;;17.02;4.18;;;;;;;;;;4858072;29;20124;-77
2023/10/04 07:22:42;;;;;;;27.90;5.03;;;;;;;;;;4872549;29;20089;-76
2023/10/04 07:25:08;;;;;;;18.83;4.55;;;;;;;;;;4895151;29;20056;-77
2023/10/04 07:27:35;;;;;;;15.52;4.40;;;;;;;;;;4883412;29;20105;-77
2023/10/04 07:30:01;;;;;;;16.20;3.78;;;;;;;;;;4888978;29;20039;-76
2023/10/04 07:32:29;;;;;;;17.80;3.63;;;;;;;;;;4887342;29;20522;-77
2023/10/04 07:34:55;;;;;;;19.80;5.88;;;;;;;;;;4870928;29;23186;-75
2023/10/04 07:37:21;;;;;;;23.60;5.15;;;;;;;;;;4879497;29;20396;-74
2023/10/04 07:39:47;;;;;;;17.20;4.45;;;;;;;;;;4873609;29;20064;-75
2023/10/04 07:42:14;;;;;;;17.23;5.75;;;;;;;;;;4887023;29;20472;-74
2023/10/04 07:44:40;;;;;;;17.75;4.82;;;;;;;;;;4863608;29;20045;-75
2023/10/04 07:47:06;;;;;;;21.63;4.80;;;;;;;;;;4885325;29;20044;-75
2023/10/04 07:49:32;;;;;;;17.70;4.88;;;;;;;;;;4890383;29;20103;-79
2023/10/04 07:51:59;;;;;;;19.08;4.38;;;;;;;;;;4886220;29;20578;-79
2023/10/04 07:54:25;;;;;;;17.40;4.53;;;;;;;;;;4888846;29;20092;-79
2023/10/04 07:56:51;;;;;;;16.58;4.20;;;;;;;;;;4871871;29;20419;-79
2023/10/04 07:59:18;;;;;;;24.17;4.80;;;;;;;;;;4867067;29;20039;-78
2023/10/04 08:01:45;;;;;;;14.40;4.28;;;;;;;;;;4889775;29;20115;-78
2023/10/04 08:04:14;;;;;;;12.82;4.10;;;;;;;;;;4885042;29;20044;-78
2023/10/04 08:06:41;;;;;;;21.83;4.78;;;;;;;;;;4879690;29;20045;-80
2023/10/04 08:09:07;;;;;;;20.30;4.25;;;;;;;;;;4867322;29;20043;-79
2023/10/04 08:11:33;;;;;;;21.45;4.70;;;;;;;;;;4896849;29;20396;-79
2023/10/04 08:14:01;;;;;;;18.77;5.43;;;;;;;;;;4866023;29;20097;-80
2023/10/04 08:16:31;;;;;;;21.73;4.25;;;;;;;;;;4887425;29;20116;-80
2023/10/04 08:18:57;;;;;;;17.15;4.13;;;;;;;;;;4879579;29;20041;-79
2023/10/04 08:21:23;;;;;;;19.60;4.35;;;;;;;;;;4881642;29;20038;-80
2023/10/04 08:23:50;;;;;;;19.10;4.20;;;;;;;;;;4883934;29;20117;-79
2023/10/04 08:26:16;;;;;;;23.92;5.47;;;;;;;;;;4880905;29;20365;-76
2023/10/04 08:28:42;;;;;;;14.45;4.90;;;;;;;;;;4882581;29;20037;-77
2023/10/04 08:31:09;;;;;;;18.30;3.95;;;;;;;;;;4886912;29;20146;-77
2023/10/04 08:33:35;;;;;;;14.73;3.80;;;;;;;;;;4881976;29;20037;-77
2023/10/04 08:36:08;;;;;;;14.73;3.83;;;;;;;;;;4867583;29;20052;-78
2023/10/04 08:38:34;;;;;;;15.85;4.57;;;;;;;;;;4887646;29;20085;-76
2023/10/04 08:41:02;;;;;;;15.75;4.80;;;;;;;;;;4886577;29;20033;-77
2023/10/04 08:43:28;;;;;;;14.93;3.90;;;;;;;;;;4893158;29;20032;-77
2023/10/04 08:45:55;;;;;;;14.90;4.13;;;;;;;;;;4886810;29;20488;-77
2023/10/04 08:48:22;;;;;;;21.42;4.72;;;;;;;;;;4885165;29;20029;-77
2023/10/04 08:50:58;;;;;;;16.73;5.30;;;;;;;;;;4866622;29;20453;-79
2023/10/04 08:53:25;;;;;;;20.10;4.55;;;;;;;;;;4874809;29;20115;-77
2023/10/04 08:55:55;;;;;;;20.05;6.35;;;;;;;;;;4882546;29;20097;-79
2023/10/04 08:58:21;;;;;;;15.50;4.88;;;;;;;;;;4888254;29;20092;-78
2023/10/04 09:00:50;;;;;;;21.85;4.63;;;;;;;;;;4887081;29;20037;-75
2023/10/04 09:03:16;;;;;;;14.40;4.38;;;;;;;;;;4885532;29;20021;-74
2023/10/04 09:05:52;;;;;;;22.55;4.55;;;;;;;;;;4887973;29;20033;-74
2023/10/04 09:08:18;;;;;;;16.38;4.95;;;;;;;;;;4891480;29;20041;-76
2023/10/04 09:10:44;;;;;;;15.63;3.95;;;;;;;;;;4869987;29;20055;-74
2023/10/04 09:13:11;;;;;;;16.88;5.03;;;;;;;;;;4878919;29;20051;-78
2023/10/04 09:15:38;;;;;;;17.95;4.03;;;;;;;;;;4863740;29;20113;-78
2023/10/04 09:18:05;;;;;;;17.98;4.35;;;;;;;;;;4878811;29;20037;-77
2023/10/04 09:20:35;;;;;;;14.10;4.30;;;;;;;;;;4883100;29;20041;-79
2023/10/04 09:23:02;;;;;;;15.32;4.22;;;;;;;;;;4886879;29;20031;-78
2023/10/04 09:25:38;;;;;;;14.93;4.25;;;;;;;;;;4862040;29;20378;-77
2023/10/04 09:28:04;;;;;;;15.90;4.43;;;;;;;;;;4864490;29;20357;-77
2023/10/04 09:30:36;;;;;;;14.98;4.18;;;;;;;;;;4866804;29;20033;-78
2023/10/04 09:33:05;;;;;;;12.05;4.13;;;;;;;;;;4860776;29;20029;-79
2023/10/04 09:35:44;;;;;;;13.55;4.15;;;;;;;;;;4867935;29;20037;-76
2023/10/04 09:38:17;;;;;;;17.73;4.28;;;;;;;;;;4867908;29;20425;-78
2023/10/04 09:40:53;;;;;;;14.77;4.45;;;;;;;;;;4868648;29;20551;-78
2023/10/04 09:43:32;;;;;;;12.50;4.35;;;;;;;;;;4859249;29;20045;-78
2023/10/04 09:45:58;;;;;;;11.18;4.78;;;;;;;;;;4858024;29;20034;-80
2023/10/04 09:48:25;;;;;;;14.57;5.30;;;;;;;;;;4858133;29;20042;-80
2023/10/04 09:50:59;;;;;;;16.50;4.47;;;;;;;;;;4861224;29;20060;-77
2023/10/04 09:53:25;;;;;;;20.20;5.03;;;;;;;;;;4859302;29;20026;-77
2023/10/04 09:55:54;;;;;;;12.80;4.40;;;;;;;;;;4865639;29;20049;-77
2023/10/04 09:58:26;;;;;;;10.35;3.92;;;;;;;;;;4866960;29;20082;-76
2023/10/04 10:00:53;;;;;;;12.05;4.60;;;;;;;;;;4867592;29;20072;-77
2023/10/04 10:03:26;;;;;;;15.50;4.15;;;;;;;;;;4862252;29;20448;-83
2023/10/04 10:05:54;;;;;;;13.48;4.53;;;;;;;;;;4865696;29;20041;-77
2023/10/04 10:08:21;;;;;;;12.00;5.10;;;;;;;;;;4869258;29;20037;-77
2023/10/04 10:10:47;;;;;;;15.02;4.90;;;;;;;;;;4868755;29;20033;-77
2023/10/04 10:13:15;;;;;;;10.68;4.03;;;;;;;;;;4860291;29;20037;-76
2023/10/04 10:15:42;;;;;;;14.50;4.80;;;;;;;;;;4866631;29;20116;-76
2023/10/04 10:18:09;;;;;;;19.10;5.25;;;;;;;;;;4866140;29;20029;-77
2023/10/04 10:20:35;;;;;;;12.45;4.60;;;;;;;;;;4865211;29;20057;-78
2023/10/04 10:23:01;;;;;;;12.55;4.10;;;;;;;;;;4862817;29;20110;-81
2023/10/04 10:25:28;;;;;;;15.55;6.18;;;;;;;;;;4861899;29;20508;-78
2023/10/04 10:27:57;;;;;;;18.90;6.32;;;;;;;;;;4861753;29;20105;-75
2023/10/04 10:30:24;;;;;;;12.63;4.45;;;;;;;;;;4865416;29;20291;-70
2023/10/04 10:32:53;;;;;;;19.10;5.22;;;;;;;;;;4860893;29;20029;-74
2023/10/04 10:35:38;;;;;;;12.55;4.45;;;;;;;;;;4869248;29;20404;-77
2023/10/04 10:38:26;;;;;;;18.30;5.10;;;;;;;;;;4860574;29;20029;-77
2023/10/04 10:40:55;;;;;;;13.32;4.63;;;;;;;;;;4866445;29;20041;-75
2023/10/04 10:43:21;;;;;;;16.15;4.75;;;;;;;;;;4877268;29;20098;-71
2023/10/04 10:45:47;;;;;;;17.65;5.32;;;;;;;;;;4871715;29;20038;-75
2023/10/04 10:48:14;;;;;;;20.45;5.22;;;;;;;;;;4863071;29;20215;-79
2023/10/04 10:50:43;;;;;;;12.02;4.75;;;;;;;;;;4864915;29;20100;-75
2023/10/04 10:53:10;;;;;;;19.08;7.20;;;;;;;;;;4861527;29;20099;-79
2023/10/04 10:55:36;;;;;;;21.65;10.95;;;;;;;;;;4862902;29;20421;-80
2023/10/04 10:58:03;;;;;;;15.75;5.20;;;;;;;;;;4867264;29;20495;-73
2023/10/04 11:00:32;;;;;;;13.35;4.93;;;;;;;;;;4863788;29;20119;-72
2023/10/04 11:02:58;;;;;;;13.95;4.45;;;;;;;;;;4869805;29;20045;-74
2023/10/04 11:05:25;;;;;;;20.33;4.70;;;;;;;;;;4873378;29;20472;-73
2023/10/04 11:07:52;;;;;;;18.48;5.78;;;;;;;;;;4865467;29;20163;-74
2023/10/04 11:10:19;;;;;;;13.85;4.95;;;;;;;;;;4866402;29;20045;-74
2023/10/04 11:12:46;;;;;;;14.68;4.28;;;;;;;;;;4865432;29;20116;-71
2023/10/04 11:15:12;;;;;;;21.10;5.05;;;;;;;;;;4877886;29;20035;-75
2023/10/04 11:17:39;;;;;;;15.70;4.50;;;;;;;;;;4880055;29;20028;-76
2023/10/04 11:20:09;;;;;;;15.55;4.50;;;;;;;;;;4880656;29;20189;-74
2023/10/04 11:22:36;;;;;;;14.27;4.70;;;;;;;;;;4873070;29;20017;-75
2023/10/04 11:25:02;;;;;;;11.73;4.38;;;;;;;;;;4889099;29;20123;-73
2023/10/04 11:27:28;;;;;;;13.48;4.97;;;;;;;;;;4883798;29;20632;-75
2023/10/04 11:29:55;;;;;;;16.77;4.13;;;;;;;;;;4885092;29;20475;-76
2023/10/04 11:32:21;;;;;;;13.52;4.40;;;;;;;;;;4889022;29;20029;-75
2023/10/04 11:34:48;;;;;;;13.52;3.72;;;;;;;;;;4882230;29;20037;-71
2023/10/04 11:37:14;;;;;;;20.80;7.32;;;;;;;;;;4866564;29;20093;-75
2023/10/04 11:39:41;;;;;;;13.27;3.80;;;;;;;;;;4887028;29;20052;-75
2023/10/04 11:42:21;;;;;;;14.20;3.42;;;;;;;;;;4881226;29;20024;-73
2023/10/04 11:44:47;;;;;;;11.82;4.03;;;;;;;;;;4867558;29;20032;-74
2023/10/04 11:47:15;;;;;;;12.57;3.60;;;;;;;;;;4888456;29;20037;-73
2023/10/04 11:49:54;;;;;;;14.55;3.45;;;;;;;;;;4892432;29;20363;-72
2023/10/04 11:52:21;;;;;;;12.98;3.83;;;;;;;;;;4886466;29;20025;-73
2023/10/04 11:54:48;;;;;;;12.02;3.17;;;;;;;;;;4879373;29;20059;-72
2023/10/04 11:57:27;;;;;;;13.23;4.20;;;;;;;;;;4883661;29;20025;-72
2023/10/04 11:59:56;;;;;;;13.15;3.88;;;;;;;;;;4891479;29;20044;-72
2023/10/04 12:02:22;;;;;;;10.88;3.60;;;;;;;;;;4884521;29;20033;-72
2023/10/04 12:04:49;;;;;;;12.90;3.95;;;;;;;;;;4891889;29;20028;-72
2023/10/04 12:07:15;;;;;;;14.82;3.88;;;;;;;;;;4889259;29;20103;-74
2023/10/04 12:09:41;;;;;;;10.93;3.30;;;;;;;;;;4882581;29;20471;-73
2023/10/04 12:12:07;;;;;;;11.65;3.40;;;;;;;;;;4879534;29;20650;-73
2023/10/04 12:14:34;;;;;;;12.70;3.63;;;;;;;;;;4882723;29;20400;-73
2023/10/04 12:17:04;;;;;;;10.63;3.13;;;;;;;;;;4882910;29;20109;-73
2023/10/04 12:19:34;;;;;;;8.40;2.60;;;;;;;;;;4869269;29;20048;-74
2023/10/04 12:22:08;;;;;;;12.20;3.03;;;;;;;;;;4885975;29;20383;-73
2023/10/04 12:24:35;;;;;;;9.73;3.10;;;;;;;;;;4878111;29;20087;-72
2023/10/04 12:27:01;;;;;;;21.58;8.32;;;;;;;;;;4882875;29;20029;-73
2023/10/04 12:29:27;;;;;;;10.63;4.05;;;;;;;;;;4880463;29;20040;-74
2023/10/04 12:31:54;;;;;;;15.82;2.85;;;;;;;;;;4870360;29;20119;-69
2023/10/04 12:34:23;;;;;;;13.48;2.75;;;;;;;;;;4880442;29;20073;-72
2023/10/04 12:36:51;;;;;;;11.05;2.90;;;;;;;;;;4883591;29;20037;-71
2023/10/04 12:39:17;;;;;;;10.75;2.47;;;;;;;;;;4866507;29;20055;-71
2023/10/04 12:41:45;;;;;;;10.20;2.47;;;;;;;;;;4881189;29;20024;-72
2023/10/04 12:44:12;;;;;;;10.23;2.67;;;;;;;;;;4885195;29;20020;-72
2023/10/04 12:46:39;;;;;;;9.10;2.47;;;;;;;;;;4882734;29;20040;-72
2023/10/04 12:49:08;;;;;;;9.27;2.80;;;;;;;;;;4884083;29;20041;-72
2023/10/04 12:51:34;;;;;;;10.40;2.42;;;;;;;;;;4881886;29;20064;-71
2023/10/04 12:54:00;;;;;;;8.50;2.47;;;;;;;;;;4874493;29;20064;-72
2023/10/04 12:56:27;;;;;;;8.50;2.47;;;;;;;;;;4867780;29;20068;-72
2023/10/04 12:58:53;;;;;;;15.55;3.20;;;;;;;;;;4880959;29;20037;-72
2023/10/04 13:01:20;;;;;;;9.88;3.03;;;;;;;;;;4885393;29;20119;-72
2023/10/04 13:03:47;;;;;;;11.82;2.80;;;;;;;;;;4881289;29;20028;-72
2023/10/04 13:06:14;;;;;;;12.65;3.15;;;;;;;;;;4879743;29;20040;-72
2023/10/04 13:08:41;;;;;;;9.85;2.65;;;;;;;;;;4888430;29;20483;-71
2023/10/04 13:11:07;;;;;;;10.15;3.35;;;;;;;;;;4887471;29;20044;-72
2023/10/04 13:13:33;;;;;;;11.73;2.60;;;;;;;;;;4884002;29;20043;-72
2023/10/04 13:15:59;;;;;;;7.50;2.92;;;;;;;;;;4882199;29;20037;-72
2023/10/04 13:18:25;;;;;;;9.52;2.88;;;;;;;;;;4890785;29;20040;-71
2023/10/04 13:20:52;;;;;;;10.20;2.67;;;;;;;;;;4867559;29;20139;-72
2023/10/04 13:23:18;;;;;;;8.00;2.65;;;;;;;;;;4885940;29;20112;-71
2023/10/04 13:25:45;;;;;;;10.10;4.00;;;;;;;;;;4883863;29;20586;-72
2023/10/04 13:28:17;;;;;;;8.10;2.63;;;;;;;;;;4891901;29;20024;-72
2023/10/04 13:30:45;;;;;;;13.17;3.13;;;;;;;;;;4886433;29;20047;-71
2023/10/04 13:33:11;;;;;;;8.02;3.28;;;;;;;;;;4883919;29;20668;-71
2023/10/04 13:35:37;;;;;;;13.63;2.90;;;;;;;;;;4883777;29;20039;-71
2023/10/04 13:38:04;;;;;;;11.82;3.15;;;;;;;;;;4893263;29;20036;-71
2023/10/04 13:40:33;;;;;;;10.00;2.78;;;;;;;;;;4878740;29;20040;-71
2023/10/04 13:42:59;;;;;;;9.48;2.75;;;;;;;;;;4878116;29;20052;-72
2023/10/04 13:45:27;;;;;;;8.07;2.90;;;;;;;;;;4894250;29;20021;-71
2023/10/04 13:47:54;;;;;;;8.18;2.47;;;;;;;;;;4895136;29;20025;-71
2023/10/04 13:50:24;;;;;;;9.93;2.30;;;;;;;;;;4867456;29;20036;-71
2023/10/04 13:52:51;;;;;;;13.55;3.17;;;;;;;;;;4875258;29;20036;-72
2023/10/04 13:55:20;;;;;;;8.57;2.47;;;;;;;;;;4881013;29;20467;-71
2023/10/04 13:57:46;;;;;;;15.98;2.63;;;;;;;;;;4885177;29;20080;-71
2023/10/04 14:00:22;;;;;;;11.45;3.03;;;;;;;;;;4884877;29;20049;-72
2023/10/04 14:02:48;;;;;;;14.30;3.35;;;;;;;;;;4894662;29;20088;-71
2023/10/04 14:05:18;;;;;;;8.48;2.38;;;;;;;;;;4864185;29;20032;-72
2023/10/04 14:07:48;;;;;;;7.35;2.85;;;;;;;;;;4882148;29;20052;-71
2023/10/04 14:10:14;;;;;;;6.63;1.92;;;;;;;;;;4885859;29;20094;-71
2023/10/04 14:12:40;;;;;;;11.70;2.17;;;;;;;;;;4878277;29;20032;-72
2023/10/04 14:15:13;;;;;;;10.73;1.98;;;;;;;;;;4860790;29;20081;-70
2023/10/04 14:17:39;;;;;;;6.40;2.08;;;;;;;;;;4889594;29;20475;-72
2023/10/04 14:20:05;;;;;;;9.20;4.75;;;;;;;;;;4884277;29;20185;-72
2023/10/04 14:22:31;;;;;;;34.80;20.40;;;;;;;;;;4879688;29;20033;-72
2023/10/04 14:24:59;;;;;;;7.25;2.25;;;;;;;;;;4884449;29;20119;-72
2023/10/04 14:27:26;;;;;;;9.98;2.90;;;;;;;;;;4882314;29;20029;-73
2023/10/04 14:29:54;;;;;;;13.52;6.65;;;;;;;;;;4884253;29;20089;-73
2023/10/04 14:32:20;;;;;;;49.28;34.75;;;;;;;;;;4874523;29;20021;-73
2023/10/04 14:34:46;;;;;;;9.18;2.85;;;;;;;;;;4895684;29;20028;-74
2023/10/04 14:37:14;;;;;;;9.68;1.90;;;;;;;;;;4882088;29;20116;-73
2023/10/04 14:39:40;;;;;;;4.30;1.80;;;;;;;;;;4864991;29;20113;-74